sensor_id;sensor_type;location;lat;lon;timestamp;pressure;altitude;pressure_sealevel;temperature;humidity
33286;BME280;19656;50.096;20.014;2023-03-13T00:05:31;98590.94;;;6.65;41.24
33286;BME280;19656;50.096;20.014;2023-03-13T00:17:49;98598.07;;;6.63;41.38
33286;BME280;19656;50.096;20.014;2023-03-13T00:30:26;98598.69;;;6.75;41.61
33286;BME280;19656;50.096;20.014;2023-03-13T00:36:36;98588.19;;;6.86;41.99
33286;BME280;19656;50.096;20.014;2023-03-13T00:48:27;98559.77;;;7.00;42.51
33286;BME280;19656;50.096;20.014;2023-03-13T00:54:19;98556.60;;;7.00;42.93
33286;BME280;19656;50.096;20.014;2023-03-13T02:05:31;98532.16;;;7.36;49.21
33286;BME280;19656;50.096;20.014;2023-03-13T02:10:38;98543.48;;;7.32;49.61
33286;BME280;19656;50.096;20.014;2023-03-13T02:15:44;98544.44;;;7.34;50.13
33286;BME280;19656;50.096;20.014;2023-03-13T02:20:50;98545.01;;;7.37;50.30
33286;BME280;19656;50.096;20.014;2023-03-13T02:25:57;98546.80;;;7.42;50.52
33286;BME280;19656;50.096;20.014;2023-03-13T03:10:36;98583.77;;;7.56;51.60
33286;BME280;19656;50.096;20.014;2023-03-13T03:45:57;98588.88;;;7.69;52.18
33286;BME280;19656;50.096;20.014;2023-03-13T04:45:34;98589.63;;;8.07;53.41
33286;BME280;19656;50.096;20.014;2023-03-13T04:51:15;98591.96;;;8.04;53.71
33286;BME280;19656;50.096;20.014;2023-03-13T04:56:42;98597.39;;;8.05;54.39
33286;BME280;19656;50.096;20.014;2023-03-13T05:02:12;98597.13;;;8.06;54.38
33286;BME280;19656;50.096;20.014;2023-03-13T05:07:39;98590.42;;;8.09;54.64
33286;BME280;19656;50.096;20.014;2023-03-13T05:13:01;98586.04;;;8.12;55.19
33286;BME280;19656;50.096;20.014;2023-03-13T05:18:23;98587.86;;;8.14;55.07
33286;BME280;19656;50.096;20.014;2023-03-13T05:24:02;98588.20;;;8.14;55.15
33286;BME280;19656;50.096;20.014;2023-03-13T05:29:24;98581.65;;;8.20;55.38
33286;BME280;19656;50.096;20.014;2023-03-13T05:34:40;98564.24;;;8.27;55.52
33286;BME280;19656;50.096;20.014;2023-03-13T05:39:58;98552.23;;;8.30;55.70
33286;BME280;19656;50.096;20.014;2023-03-13T05:45:20;98548.53;;;8.33;55.79
33286;BME280;19656;50.096;20.014;2023-03-13T05:50:48;98542.26;;;8.38;55.97
33286;BME280;19656;50.096;20.014;2023-03-13T05:56:20;98544.42;;;8.43;56.01
33286;BME280;19656;50.096;20.014;2023-03-13T06:01:48;98545.48;;;8.48;56.23
33286;BME280;19656;50.096;20.014;2023-03-13T06:07:05;98543.21;;;8.57;56.09
33286;BME280;19656;50.096;20.014;2023-03-13T06:12:28;98546.16;;;8.60;56.23
33286;BME280;19656;50.096;20.014;2023-03-13T06:17:40;98550.38;;;8.66;56.34
33286;BME280;19656;50.096;20.014;2023-03-13T06:22:47;98547.82;;;8.73;56.51
33286;BME280;19656;50.096;20.014;2023-03-13T06:28:43;98550.30;;;8.82;56.60
33286;BME280;19656;50.096;20.014;2023-03-13T06:34:12;98548.45;;;8.92;56.60
33286;BME280;19656;50.096;20.014;2023-03-13T06:40:04;98542.94;;;8.98;56.72
33286;BME280;19656;50.096;20.014;2023-03-13T06:45:30;98534.71;;;9.07;56.63
33286;BME280;19656;50.096;20.014;2023-03-13T06:50:54;98527.95;;;9.16;56.77
33286;BME280;19656;50.096;20.014;2023-03-13T07:09:22;98521.27;;;9.54;56.48
33286;BME280;19656;50.096;20.014;2023-03-13T07:47:35;98498.20;;;10.09;55.87
33286;BME280;19656;50.096;20.014;2023-03-13T07:52:59;98490.17;;;10.23;55.56
33286;BME280;19656;50.096;20.014;2023-03-13T07:58:49;98484.64;;;10.31;55.51
33286;BME280;19656;50.096;20.014;2023-03-13T08:05:47;98479.19;;;10.46;55.73
33286;BME280;19656;50.096;20.014;2023-03-13T08:10:41;98470.91;;;10.68;55.32
33286;BME280;19656;50.096;20.014;2023-03-13T08:16:05;98474.62;;;10.80;54.90
33286;BME280;19656;50.096;20.014;2023-03-13T08:22:06;98470.80;;;10.91;54.67
33286;BME280;19656;50.096;20.014;2023-03-13T08:27:11;98462.30;;;10.96;54.51
33286;BME280;19656;50.096;20.014;2023-03-13T08:32:41;98454.19;;;11.00;54.39
33286;BME280;19656;50.096;20.014;2023-03-13T08:38:00;98456.60;;;11.08;54.33
33286;BME280;19656;50.096;20.014;2023-03-13T08:43:09;98449.45;;;11.16;54.08
33286;BME280;19656;50.096;20.014;2023-03-13T08:48:22;98448.68;;;11.27;54.07
33286;BME280;19656;50.096;20.014;2023-03-13T08:53:28;98439.08;;;11.38;53.67
33286;BME280;19656;50.096;20.014;2023-03-13T08:58:38;98436.45;;;11.52;53.34
33286;BME280;19656;50.096;20.014;2023-03-13T09:03:43;98432.23;;;11.66;52.76
33286;BME280;19656;50.096;20.014;2023-03-13T09:35:19;98388.70;;;12.54;50.26
33286;BME280;19656;50.096;20.014;2023-03-13T09:40:47;98387.65;;;12.69;49.85
33286;BME280;19656;50.096;20.014;2023-03-13T09:53:20;98382.01;;;13.06;48.27
33286;BME280;19656;50.096;20.014;2023-03-13T09:58:36;98369.61;;;13.22;47.97
33286;BME280;19656;50.096;20.014;2023-03-13T10:04:01;98363.84;;;13.44;47.51
33286;BME280;19656;50.096;20.014;2023-03-13T10:09:29;98355.52;;;13.62;47.02
33286;BME280;19656;50.096;20.014;2023-03-13T10:19:46;98350.36;;;13.54;46.37
33286;BME280;19656;50.096;20.014;2023-03-13T10:30:42;98350.55;;;13.64;46.13
33286;BME280;19656;50.096;20.014;2023-03-13T10:36:22;98342.26;;;13.82;45.64
33286;BME280;19656;50.096;20.014;2023-03-13T10:41:30;98331.60;;;14.10;45.64
33286;BME280;19656;50.096;20.014;2023-03-13T10:46:43;98329.92;;;14.29;44.49
33286;BME280;19656;50.096;20.014;2023-03-13T11:35:34;98249.13;;;15.37;39.67
33286;BME280;19656;50.096;20.014;2023-03-13T11:41:34;98238.52;;;15.25;39.42
33286;BME280;19656;50.096;20.014;2023-03-13T11:46:40;98232.73;;;15.12;39.48
33286;BME280;19656;50.096;20.014;2023-03-13T11:51:58;98223.46;;;15.06;39.71
33286;BME280;19656;50.096;20.014;2023-03-13T11:57:13;98221.91;;;15.02;39.59
33286;BME280;19656;50.096;20.014;2023-03-13T12:02:40;98219.14;;;15.01;39.20
33286;BME280;19656;50.096;20.014;2023-03-13T12:07:59;98206.52;;;14.90;38.76
33286;BME280;19656;50.096;20.014;2023-03-13T12:13:19;98185.42;;;14.83;39.04
33286;BME280;19656;50.096;20.014;2023-03-13T12:18:33;98181.30;;;14.85;39.28
33286;BME280;19656;50.096;20.014;2023-03-13T12:28:46;98161.13;;;14.82;38.31
33286;BME280;19656;50.096;20.014;2023-03-13T12:39:42;98132.30;;;14.84;37.01
33286;BME280;19656;50.096;20.014;2023-03-13T12:44:49;98130.36;;;14.87;36.33
33286;BME280;19656;50.096;20.014;2023-03-13T13:00:22;98106.70;;;15.05;35.99
33286;BME280;19656;50.096;20.014;2023-03-13T13:05:27;98103.38;;;15.14;35.89
33286;BME280;19656;50.096;20.014;2023-03-13T13:10:30;98100.14;;;15.20;35.57
33286;BME280;19656;50.096;20.014;2023-03-13T13:15:33;98101.16;;;15.24;35.01
33286;BME280;19656;50.096;20.014;2023-03-13T13:20:46;98103.09;;;15.26;34.30
33286;BME280;19656;50.096;20.014;2023-03-13T13:25:53;98091.46;;;15.23;34.34
33286;BME280;19656;50.096;20.014;2023-03-13T13:30:58;98091.52;;;15.20;34.13
33286;BME280;19656;50.096;20.014;2023-03-13T14:45:37;98085.69;;;13.78;45.58
33286;BME280;19656;50.096;20.014;2023-03-13T14:50:42;98077.07;;;13.71;45.44
33286;BME280;19656;50.096;20.014;2023-03-13T14:55:47;98072.48;;;13.64;45.57
33286;BME280;19656;50.096;20.014;2023-03-13T15:00:55;98074.70;;;13.60;45.78
33286;BME280;19656;50.096;20.014;2023-03-13T15:06:04;98065.89;;;13.56;45.96
33286;BME280;19656;50.096;20.014;2023-03-13T15:11:27;98072.17;;;13.56;45.99
33286;BME280;19656;50.096;20.014;2023-03-13T15:16:32;98069.56;;;13.55;45.97
33286;BME280;19656;50.096;20.014;2023-03-13T15:21:36;98066.50;;;13.54;45.87
33286;BME280;19656;50.096;20.014;2023-03-13T15:26:43;98067.92;;;13.50;46.19
33286;BME280;19656;50.096;20.014;2023-03-13T15:31:52;98062.63;;;13.47;46.42
33286;BME280;19656;50.096;20.014;2023-03-13T15:36:56;98062.81;;;13.43;46.52
33286;BME280;19656;50.096;20.014;2023-03-13T15:42:00;98053.73;;;13.39;46.86
33286;BME280;19656;50.096;20.014;2023-03-13T15:47:04;98057.43;;;13.39;47.05
33286;BME280;19656;50.096;20.014;2023-03-13T15:58:22;98048.86;;;13.39;47.60
33286;BME280;19656;50.096;20.014;2023-03-13T16:03:27;98040.50;;;13.37;47.78
33286;BME280;19656;50.096;20.014;2023-03-13T16:08:31;98043.73;;;13.35;47.97
33286;BME280;19656;50.096;20.014;2023-03-13T16:13:39;98044.62;;;13.35;47.96
33286;BME280;19656;50.096;20.014;2023-03-13T16:18:43;98045.28;;;13.36;48.05
33286;BME280;19656;50.096;20.014;2023-03-13T16:23:48;98054.54;;;13.38;47.95
33286;BME280;19656;50.096;20.014;2023-03-13T16:28:52;98053.90;;;13.39;48.05
33286;BME280;19656;50.096;20.014;2023-03-13T16:33:58;98049.08;;;13.41;48.07
33286;BME280;19656;50.096;20.014;2023-03-13T16:42:07;98043.50;;;13.46;47.98
33286;BME280;19656;50.096;20.014;2023-03-13T16:47:19;98048.46;;;13.40;47.97
33286;BME280;19656;50.096;20.014;2023-03-13T16:52:23;98052.23;;;13.40;47.96
33286;BME280;19656;50.096;20.014;2023-03-13T16:57:27;98052.20;;;13.40;47.88
33286;BME280;19656;50.096;20.014;2023-03-13T17:02:30;98042.52;;;13.37;47.85
33286;BME280;19656;50.096;20.014;2023-03-13T17:07:37;98029.28;;;13.37;47.89
33286;BME280;19656;50.096;20.014;2023-03-13T17:12:43;98029.72;;;13.37;47.89
33286;BME280;19656;50.096;20.014;2023-03-13T17:17:48;98023.52;;;13.32;47.88
33286;BME280;19656;50.096;20.014;2023-03-13T17:22:56;98024.25;;;13.34;48.04
33286;BME280;19656;50.096;20.014;2023-03-13T17:27:59;98009.48;;;13.36;48.06
33286;BME280;19656;50.096;20.014;2023-03-13T17:33:03;98000.48;;;13.37;47.95
33286;BME280;19656;50.096;20.014;2023-03-13T17:38:09;97997.40;;;13.35;48.29
33286;BME280;19656;50.096;20.014;2023-03-13T17:43:13;97990.08;;;13.35;48.88
33286;BME280;19656;50.096;20.014;2023-03-13T17:48:19;97984.73;;;13.19;49.09
33286;BME280;19656;50.096;20.014;2023-03-13T17:53:23;97974.11;;;13.07;49.32
33286;BME280;19656;50.096;20.014;2023-03-13T17:58:26;97976.73;;;12.97;49.46
33286;BME280;19656;50.096;20.014;2023-03-13T18:03:32;97970.61;;;12.86;49.84
33286;BME280;19656;50.096;20.014;2023-03-13T18:08:36;97964.98;;;12.73;50.02
33286;BME280;19656;50.096;20.014;2023-03-13T18:13:39;97951.71;;;12.61;50.47
33286;BME280;19656;50.096;20.014;2023-03-13T18:18:43;97951.96;;;12.55;50.56
33286;BME280;19656;50.096;20.014;2023-03-13T18:23:46;97947.89;;;12.53;50.67
33286;BME280;19656;50.096;20.014;2023-03-13T18:28:53;97930.42;;;12.51;50.83
33286;BME280;19656;50.096;20.014;2023-03-13T18:34:03;97923.34;;;12.47;51.23
33286;BME280;19656;50.096;20.014;2023-03-13T18:39:12;97908.83;;;12.38;51.41
33286;BME280;19656;50.096;20.014;2023-03-13T18:44:17;97893.43;;;12.35;51.31
33286;BME280;19656;50.096;20.014;2023-03-13T18:49:22;97884.91;;;12.37;51.21
33286;BME280;19656;50.096;20.014;2023-03-13T18:54:27;97873.41;;;12.40;51.02
33286;BME280;19656;50.096;20.014;2023-03-13T18:59:35;97867.71;;;12.40;50.99
33286;BME280;19656;50.096;20.014;2023-03-13T19:04:38;97856.64;;;12.49;51.06
33286;BME280;19656;50.096;20.014;2023-03-13T19:09:43;97856.61;;;12.51;50.67
33286;BME280;19656;50.096;20.014;2023-03-13T19:14:56;97857.60;;;12.46;50.84
33286;BME280;19656;50.096;20.014;2023-03-13T19:19:59;97846.62;;;12.35;51.02
33286;BME280;19656;50.096;20.014;2023-03-13T19:25:05;97846.10;;;12.25;51.40
33286;BME280;19656;50.096;20.014;2023-03-13T19:30:19;97837.48;;;12.14;51.89
33286;BME280;19656;50.096;20.014;2023-03-13T19:35:23;97836.38;;;12.02;52.23
33286;BME280;19656;50.096;20.014;2023-03-13T19:40:26;97832.46;;;11.88;52.56
33286;BME280;19656;50.096;20.014;2023-03-13T19:45:32;97835.91;;;11.72;52.71
33286;BME280;19656;50.096;20.014;2023-03-13T19:50:36;97837.86;;;11.62;52.83
33286;BME280;19656;50.096;20.014;2023-03-13T19:55:40;97838.39;;;11.66;53.80
33286;BME280;19656;50.096;20.014;2023-03-13T20:00:54;97826.14;;;11.58;53.24
33286;BME280;19656;50.096;20.014;2023-03-13T20:06:00;97822.20;;;11.42;53.40
33286;BME280;19656;50.096;20.014;2023-03-13T20:11:04;97821.81;;;11.30;53.72
33286;BME280;19656;50.096;20.014;2023-03-13T20:16:09;97838.75;;;11.18;53.91
33286;BME280;19656;50.096;20.014;2023-03-13T20:21:15;97834.92;;;11.09;54.32
33286;BME280;19656;50.096;20.014;2023-03-13T20:26:20;97828.91;;;11.00;54.68
33286;BME280;19656;50.096;20.014;2023-03-13T20:31:28;97818.31;;;10.93;54.83
33286;BME280;19656;50.096;20.014;2023-03-13T21:45:31;97739.29;;;10.77;52.90
33286;BME280;19656;50.096;20.014;2023-03-13T21:50:39;97726.60;;;10.65;53.24
33286;BME280;19656;50.096;20.014;2023-03-13T21:55:44;97722.59;;;10.56;53.38
33286;BME280;19656;50.096;20.014;2023-03-13T22:00:55;97717.29;;;10.54;52.96
33286;BME280;19656;50.096;20.014;2023-03-13T22:05:59;97705.64;;;10.68;51.90
33286;BME280;19656;50.096;20.014;2023-03-13T22:11:10;97699.15;;;10.75;51.50
33286;BME280;19656;50.096;20.014;2023-03-13T22:16:23;97691.23;;;10.83;50.92
33286;BME280;19656;50.096;20.014;2023-03-13T22:21:30;97692.96;;;11.04;49.94
33286;BME280;19656;50.096;20.014;2023-03-13T22:26:34;97690.97;;;11.27;48.82
33286;BME280;19656;50.096;20.014;2023-03-13T22:31:38;97695.31;;;11.41;49.47
33286;BME280;19656;50.096;20.014;2023-03-13T22:36:42;97697.21;;;11.44;49.25
33286;BME280;19656;50.096;20.014;2023-03-13T22:41:45;97700.52;;;11.44;49.56
33286;BME280;19656;50.096;20.014;2023-03-13T22:46:53;97702.20;;;11.37;50.11
33286;BME280;19656;50.096;20.014;2023-03-13T22:51:57;97697.27;;;11.30;50.72
33286;BME280;19656;50.096;20.014;2023-03-13T22:57:05;97685.78;;;11.26;51.52
33286;BME280;19656;50.096;20.014;2023-03-13T23:02:10;97674.30;;;11.31;50.44
33286;BME280;19656;50.096;20.014;2023-03-13T23:07:16;97674.05;;;11.32;51.12
33286;BME280;19656;50.096;20.014;2023-03-13T23:12:22;97671.09;;;11.23;51.03
33286;BME280;19656;50.096;20.014;2023-03-13T23:17:32;97655.55;;;11.14;51.16
33286;BME280;19656;50.096;20.014;2023-03-13T23:22:43;97656.89;;;11.33;49.03
33286;BME280;19656;50.096;20.014;2023-03-13T23:27:48;97649.61;;;11.69;47.85
33286;BME280;19656;50.096;20.014;2023-03-13T23:32:52;97629.74;;;11.95;46.75
33286;BME280;19656;50.096;20.014;2023-03-13T23:42:47;97616.16;;;12.43;44.86
33286;BME280;19656;50.096;20.014;2023-03-13T23:47:52;97607.94;;;12.64;44.12
33286;BME280;19656;50.096;20.014;2023-03-13T23:52:56;97596.98;;;12.79;43.52
